createdAt,value
2024-04-25T00:02:18.231Z,48.78
2024-04-25T00:04:51.140Z,49.47
2024-04-25T00:07:19.171Z,48.93
2024-04-25T00:09:48.014Z,49.27
2024-04-25T00:12:16.095Z,49.57
2024-04-25T00:14:44.606Z,49.00
2024-04-25T00:17:12.680Z,48.88
2024-04-25T00:19:41.141Z,48.98
2024-04-25T00:22:09.536Z,49.29
2024-04-25T00:24:38.026Z,49.10
2024-04-25T00:27:06.003Z,49.23
2024-04-25T00:29:34.642Z,49.57
2024-04-25T00:32:02.759Z,49.31
2024-04-25T00:34:31.342Z,49.17
2024-04-25T00:36:59.314Z,48.98
2024-04-25T00:39:28.363Z,49.04
2024-04-25T00:41:56.384Z,49.21
2024-04-25T00:44:24.838Z,49.24
2024-04-25T00:46:52.884Z,49.32
2024-04-25T00:49:21.416Z,48.96
2024-04-25T00:51:49.619Z,49.27
2024-04-25T00:54:18.150Z,49.09
2024-04-25T00:56:46.114Z,49.11
2024-04-25T00:59:14.579Z,49.05
2024-04-25T01:01:45.280Z,49.10
2024-04-25T01:04:14.246Z,49.14
2024-04-25T01:06:42.383Z,49.52
2024-04-25T01:09:10.911Z,48.99
2024-04-25T01:11:39.071Z,48.80
2024-04-25T01:14:08.873Z,49.34
2024-04-25T01:16:36.954Z,48.84
2024-04-25T01:19:05.435Z,48.81
2024-04-25T01:21:35.312Z,49.16
2024-04-25T01:24:04.465Z,49.07
2024-04-25T01:26:32.682Z,48.69
2024-04-25T01:29:01.315Z,49.15
2024-04-25T01:31:29.380Z,48.80
2024-04-25T01:33:58.071Z,49.42
2024-04-25T01:36:26.112Z,49.16
2024-04-25T01:38:54.945Z,49.41
2024-04-25T01:41:23.767Z,49.27
2024-04-25T01:43:52.254Z,49.14
2024-04-25T01:46:20.290Z,48.98
2024-04-25T01:48:48.985Z,49.11
2024-04-25T01:51:17.216Z,48.86
2024-04-25T01:53:46.510Z,48.74
2024-04-25T01:56:14.813Z,49.02
2024-04-25T01:58:43.355Z,49.13
2024-04-25T02:01:11.405Z,49.04
2024-04-25T02:03:40.245Z,48.83
2024-04-25T02:06:09.162Z,49.28
2024-04-25T02:08:37.902Z,48.88
2024-04-25T02:11:09.250Z,49.01
2024-04-25T02:13:37.912Z,49.44
2024-04-25T02:16:06.964Z,49.17
2024-04-25T02:18:35.469Z,48.64
2024-04-25T02:21:21.874Z,49.06
2024-04-25T02:24:08.938Z,49.33
2024-04-25T02:26:37.067Z,48.95
2024-04-25T02:29:05.788Z,49.16
2024-04-25T02:31:38.627Z,49.11
2024-04-25T02:34:10.382Z,48.92
2024-04-25T02:36:38.611Z,48.97
2024-04-25T02:39:08.409Z,49.01
2024-04-25T02:41:36.676Z,48.95
2024-04-25T02:44:05.590Z,49.49
2024-04-25T02:46:33.788Z,49.23
2024-04-25T02:49:02.329Z,48.72
2024-04-25T02:51:33.096Z,49.00
2024-04-25T02:54:01.642Z,48.83
2024-04-25T02:56:29.685Z,49.12
2024-04-25T02:58:58.224Z,48.91
2024-04-25T03:01:26.318Z,49.27
2024-04-25T03:03:54.949Z,48.62
2024-04-25T03:06:26.651Z,49.39
2024-04-25T03:08:55.091Z,49.15
2024-04-25T03:11:23.173Z,49.34
2024-04-25T03:13:51.946Z,49.22
2024-04-25T03:16:20.254Z,48.88
2024-04-25T03:18:49.068Z,49.17
2024-04-25T03:21:19.064Z,48.74
2024-04-25T03:23:47.777Z,49.24
2024-04-25T03:26:15.867Z,48.86
2024-04-25T03:28:44.430Z,48.91
2024-04-25T03:31:12.602Z,48.77
2024-04-25T03:33:41.278Z,49.02
2024-04-25T03:36:09.354Z,48.92
2024-04-25T03:38:38.238Z,49.03
2024-04-25T03:41:06.546Z,48.77
2024-04-25T03:43:35.005Z,48.87
2024-04-25T03:46:03.105Z,48.70
2024-04-25T03:48:31.559Z,49.03
2024-04-25T03:50:59.749Z,49.20
2024-04-25T03:53:28.380Z,49.08
2024-04-25T03:55:56.536Z,48.79
2024-04-25T03:58:25.120Z,49.02
2024-04-25T04:00:53.191Z,49.23
2024-04-25T04:03:21.820Z,49.04
2024-04-25T04:05:49.995Z,49.21
2024-04-25T04:08:18.958Z,48.97
2024-04-25T04:10:47.389Z,49.47
2024-04-25T04:13:16.043Z,48.82
2024-04-25T04:15:44.207Z,49.20
2024-04-25T04:18:12.846Z,48.98
2024-04-25T04:20:41.200Z,48.89
2024-04-25T04:23:09.873Z,48.93
2024-04-25T04:25:38.128Z,49.12
2024-04-25T04:28:06.806Z,48.82
2024-04-25T04:30:36.236Z,49.02
2024-04-25T04:33:05.043Z,49.09
2024-04-25T04:35:33.228Z,48.94
2024-04-25T04:38:01.784Z,48.63
2024-04-25T04:40:29.913Z,49.47
2024-04-25T04:42:58.600Z,48.73
2024-04-25T04:45:26.795Z,49.07
2024-04-25T04:47:56.004Z,49.19
2024-04-25T04:50:24.560Z,49.03
2024-04-25T04:52:53.018Z,48.46
2024-04-25T04:55:21.144Z,48.80
2024-04-25T04:57:49.704Z,49.27
2024-04-25T05:00:17.787Z,48.82
2024-04-25T05:02:46.264Z,48.61
2024-04-25T05:05:14.463Z,48.90
2024-04-25T05:07:42.876Z,48.69
2024-04-25T05:10:10.982Z,48.78
2024-04-25T05:12:39.453Z,49.03
2024-04-25T05:15:07.593Z,48.72
2024-04-25T05:17:37.968Z,49.12
2024-04-25T05:20:08.000Z,49.13
2024-04-25T05:22:37.955Z,49.01
2024-04-25T05:25:06.264Z,49.39
2024-04-25T05:27:38.084Z,49.06
2024-04-25T05:30:06.516Z,48.91
2024-04-25T05:32:35.239Z,49.25
2024-04-25T05:35:05.594Z,48.82
2024-04-25T05:37:34.210Z,49.03
2024-04-25T05:40:02.465Z,49.25
2024-04-25T05:42:31.061Z,49.49
2024-04-25T05:44:59.173Z,48.74
2024-04-25T05:47:28.416Z,49.22
2024-04-25T05:49:56.475Z,48.72
2024-04-25T05:52:25.195Z,48.84
2024-04-25T05:54:53.243Z,49.07
2024-04-25T05:57:21.854Z,48.91
2024-04-25T05:59:49.972Z,48.92
2024-04-25T06:02:18.488Z,49.26
2024-04-25T06:04:46.645Z,49.16
2024-04-25T06:07:15.139Z,48.68
2024-04-25T06:09:43.244Z,49.15
2024-04-25T06:12:11.814Z,48.64
2024-04-25T06:14:42.494Z,48.86
2024-04-25T06:17:12.764Z,48.90
2024-04-25T06:19:41.222Z,48.53
2024-04-25T06:22:09.764Z,48.96
2024-04-25T06:24:37.900Z,49.25
2024-04-25T06:27:06.479Z,48.88
2024-04-25T06:29:34.672Z,48.80
2024-04-25T06:32:03.334Z,49.03
2024-04-25T06:34:31.999Z,48.83
2024-04-25T06:37:01.073Z,48.71
2024-04-25T06:39:29.174Z,48.98
2024-04-25T06:41:59.155Z,48.81
2024-04-25T06:44:32.161Z,48.81
2024-04-25T06:47:07.366Z,49.00
2024-04-25T06:49:36.223Z,48.87
2024-04-25T06:52:04.405Z,48.85
2024-04-25T06:54:33.550Z,48.71
2024-04-25T06:57:01.553Z,48.89
2024-04-25T06:59:30.043Z,49.03
2024-04-25T07:02:00.258Z,48.82
2024-04-25T07:04:28.725Z,48.93
2024-04-25T07:06:56.822Z,49.07
2024-04-25T07:09:25.984Z,49.13
2024-04-25T07:11:54.827Z,48.93
2024-04-25T07:14:24.222Z,49.10
2024-04-25T07:16:52.417Z,48.88
2024-04-25T07:19:21.044Z,49.14
2024-04-25T07:21:49.202Z,48.81
2024-04-25T07:24:17.619Z,48.90
2024-04-25T07:26:45.636Z,48.90
2024-04-25T07:29:15.127Z,49.14
2024-04-25T07:31:43.276Z,49.06
2024-04-25T07:34:11.717Z,48.83
2024-04-25T07:36:39.841Z,49.00
2024-04-25T07:39:08.509Z,48.97
2024-04-25T07:41:38.713Z,49.24
2024-04-25T07:44:07.254Z,49.37
2024-04-25T07:46:35.704Z,48.87
2024-04-25T07:49:06.218Z,48.85
2024-04-25T07:51:34.303Z,48.92
2024-04-25T07:54:02.902Z,48.62
2024-04-25T07:56:31.322Z,49.29
2024-04-25T07:58:59.818Z,48.96
2024-04-25T08:01:27.948Z,48.63
2024-04-25T08:03:56.454Z,48.70
2024-04-25T08:06:25.381Z,48.81
2024-04-25T08:08:54.040Z,48.59
2024-04-25T08:11:22.304Z,48.97
2024-04-25T08:13:51.835Z,49.06
2024-04-25T08:16:20.049Z,48.99
2024-04-25T08:18:49.622Z,48.97
2024-04-25T08:21:17.700Z,48.65
2024-04-25T08:23:46.147Z,48.44
2024-04-25T08:26:15.420Z,48.26
2024-04-25T08:28:44.032Z,48.58
2024-04-25T08:31:12.130Z,48.52
2024-04-25T08:33:40.804Z,48.58
2024-04-25T08:36:10.105Z,48.80
2024-04-25T08:38:41.362Z,48.65
2024-04-25T08:41:09.728Z,48.73
2024-04-25T08:43:42.042Z,48.48
2024-04-25T08:46:13.112Z,48.45
2024-04-25T08:48:41.574Z,48.34
2024-04-25T08:51:10.833Z,47.98
2024-04-25T08:53:40.395Z,48.21
2024-04-25T08:56:09.044Z,48.51
2024-04-25T08:58:37.594Z,48.49
2024-04-25T09:01:05.818Z,48.21
2024-04-25T09:03:34.539Z,48.00
2024-04-25T09:06:03.053Z,48.43
2024-04-25T09:08:31.638Z,48.48
2024-04-25T09:11:01.292Z,48.04
2024-04-25T09:13:29.797Z,48.22
2024-04-25T09:16:01.023Z,48.37
2024-04-25T09:18:29.945Z,48.11
2024-04-25T09:20:58.101Z,48.24
2024-04-25T09:23:26.721Z,48.44
2024-04-25T09:25:54.971Z,48.50
2024-04-25T09:28:23.568Z,48.28
2024-04-25T09:30:51.723Z,48.22
2024-04-25T09:33:21.639Z,48.38
2024-04-25T09:35:50.202Z,48.45
2024-04-25T09:38:18.620Z,48.54
2024-04-25T09:40:50.942Z,48.31
2024-04-25T09:43:20.732Z,48.61
2024-04-25T09:45:48.856Z,48.14
2024-04-25T09:48:18.113Z,48.51
2024-04-25T09:50:47.810Z,48.86
2024-04-25T09:53:19.123Z,48.12
2024-04-25T09:55:47.404Z,48.15
2024-04-25T09:58:36.243Z,47.81
2024-04-25T10:01:05.377Z,47.92
2024-04-25T10:03:33.903Z,48.21
2024-04-25T10:06:02.147Z,48.13
2024-04-25T10:08:30.742Z,48.49
2024-04-25T10:11:02.150Z,48.41
2024-04-25T10:13:32.452Z,48.02
2024-04-25T10:16:00.572Z,48.28
2024-04-25T10:18:30.350Z,47.69
2024-04-25T10:21:02.476Z,47.86
2024-04-25T10:23:35.324Z,48.10
2024-04-25T10:26:03.404Z,47.99
2024-04-25T10:28:32.821Z,48.01
2024-04-25T10:31:01.090Z,47.76
2024-04-25T10:33:29.866Z,48.11
2024-04-25T10:36:03.333Z,47.70
2024-04-25T10:38:31.882Z,47.52
2024-04-25T10:41:00.048Z,47.98
2024-04-25T10:43:28.663Z,47.77
2024-04-25T10:45:56.751Z,47.89
2024-04-25T10:48:25.495Z,47.70
2024-04-25T10:50:53.746Z,47.34
2024-04-25T10:53:23.533Z,47.34
2024-04-25T10:55:53.011Z,47.51
2024-04-25T10:58:22.318Z,47.64
2024-04-25T11:00:50.394Z,47.64
2024-04-25T11:03:19.153Z,47.42
2024-04-25T11:05:49.395Z,47.49
2024-04-25T11:08:18.096Z,47.63
2024-04-25T11:10:46.179Z,47.42
2024-04-25T11:13:15.671Z,47.14
2024-04-25T11:15:44.423Z,47.08
2024-04-25T11:18:16.742Z,47.49
2024-04-25T11:20:51.780Z,47.21
2024-04-25T11:23:21.440Z,47.32
2024-04-25T11:25:51.977Z,47.27
2024-04-25T11:28:21.035Z,47.10
2024-04-25T11:30:49.120Z,47.01
2024-04-25T11:33:22.339Z,47.43
2024-04-25T11:35:50.942Z,47.20
2024-04-25T11:38:19.634Z,47.36
2024-04-25T11:40:48.256Z,47.37
2024-04-25T11:43:17.051Z,46.93
2024-04-25T11:45:45.679Z,47.48
2024-04-25T11:48:17.720Z,47.38
2024-04-25T11:50:46.405Z,47.77
2024-04-25T11:53:15.256Z,47.48
2024-04-25T11:55:43.536Z,47.46
2024-04-25T11:58:12.153Z,47.12
2024-04-25T12:00:40.280Z,47.31
2024-04-25T12:03:08.940Z,46.96
2024-04-25T12:05:37.449Z,47.05
2024-04-25T12:08:07.044Z,47.18
2024-04-25T12:10:35.227Z,47.07
2024-04-25T12:13:03.731Z,46.59
2024-04-25T12:15:31.783Z,46.68
2024-04-25T12:18:00.543Z,46.76
2024-04-25T12:20:28.941Z,46.91
2024-04-25T12:22:57.413Z,47.08
2024-04-25T12:25:25.514Z,46.55
2024-04-25T12:27:53.943Z,46.82
2024-04-25T12:30:21.944Z,46.50
2024-04-25T12:32:51.489Z,46.95
2024-04-25T12:35:21.602Z,46.79
2024-04-25T12:37:50.283Z,46.82
2024-04-25T12:40:18.317Z,46.47
2024-04-25T12:42:46.942Z,46.27
2024-04-25T12:45:17.957Z,46.28
2024-04-25T12:47:46.710Z,46.30
2024-04-25T12:50:16.879Z,46.58
2024-04-25T12:52:46.852Z,46.08
2024-04-25T12:55:15.018Z,46.52
2024-04-25T12:57:43.596Z,46.43
2024-04-25T13:00:13.311Z,46.40
2024-04-25T13:02:42.003Z,46.35
2024-04-25T13:05:10.540Z,46.73
2024-04-25T13:07:39.084Z,46.53
2024-04-25T13:10:07.327Z,46.25
2024-04-25T13:12:36.036Z,46.12
2024-04-25T13:15:04.869Z,46.25
2024-04-25T13:17:35.800Z,46.30
2024-04-25T13:20:06.241Z,46.38
2024-04-25T13:22:34.709Z,45.91
2024-04-25T13:25:03.470Z,46.00
2024-04-25T13:27:32.299Z,45.92
2024-04-25T13:30:00.618Z,45.63
2024-04-25T13:32:29.409Z,46.01
2024-04-25T13:35:00.067Z,45.96
2024-04-25T13:37:28.692Z,46.10
2024-04-25T13:39:56.752Z,46.18
2024-04-25T13:42:25.230Z,45.70
2024-04-25T13:44:53.280Z,45.80
2024-04-25T13:47:21.781Z,45.49
2024-04-25T13:49:49.843Z,45.90
2024-04-25T13:52:18.283Z,45.75
2024-04-25T13:54:46.359Z,45.51
2024-04-25T13:57:14.855Z,45.91
2024-04-25T13:59:42.985Z,45.63
2024-04-25T14:02:11.731Z,45.70
2024-04-25T14:04:39.901Z,45.54
2024-04-25T14:07:10.253Z,45.47
2024-04-25T14:09:42.570Z,45.62
2024-04-25T14:12:11.235Z,45.82
2024-04-25T14:14:39.469Z,45.58
2024-04-25T14:17:08.663Z,45.70
2024-04-25T14:19:36.677Z,45.31
2024-04-25T14:22:05.224Z,45.88
2024-04-25T14:24:36.672Z,45.57
2024-04-25T14:27:23.678Z,45.19
2024-04-25T14:29:51.791Z,45.54
2024-04-25T14:32:20.426Z,44.89
2024-04-25T14:34:49.768Z,44.92
2024-04-25T14:37:20.164Z,45.11
2024-04-25T14:39:48.430Z,45.46
2024-04-25T14:42:18.440Z,45.23
2024-04-25T14:44:47.067Z,45.81
2024-04-25T14:47:15.829Z,45.46
2024-04-25T14:49:45.431Z,45.34
2024-04-25T14:52:14.038Z,45.47
2024-04-25T14:54:42.036Z,45.72
2024-04-25T14:57:10.922Z,45.62
2024-04-25T14:59:38.919Z,45.53
2024-04-25T15:02:07.569Z,45.41
2024-04-25T15:04:37.568Z,45.26
2024-04-25T15:07:06.146Z,45.62
2024-04-25T15:09:34.191Z,45.42
2024-04-25T15:12:06.952Z,45.23
2024-04-25T15:14:36.136Z,45.59
2024-04-25T15:17:05.803Z,45.60
2024-04-25T15:19:41.323Z,45.61
2024-04-25T15:22:10.104Z,45.34
2024-04-25T15:24:38.573Z,45.89
2024-04-25T15:27:07.441Z,45.86
2024-04-25T15:29:38.301Z,45.52
2024-04-25T15:32:07.906Z,45.62
2024-04-25T15:34:36.214Z,45.89
2024-04-25T15:37:05.138Z,45.76
2024-04-25T15:39:33.555Z,46.30
2024-04-25T15:42:02.419Z,46.08
2024-04-25T15:44:30.755Z,45.98
2024-04-25T15:46:59.621Z,45.82
2024-04-25T15:49:27.997Z,46.19
2024-04-25T15:51:56.766Z,46.01
2024-04-25T15:54:25.254Z,46.44
2024-04-25T15:56:54.126Z,45.95
2024-04-25T15:59:22.500Z,45.79
2024-04-25T16:01:51.379Z,46.05
2024-04-25T16:04:19.914Z,46.14
2024-04-25T16:06:50.721Z,46.11
2024-04-25T16:09:19.374Z,45.91
2024-04-25T16:11:48.298Z,45.76
2024-04-25T16:14:18.895Z,46.16
2024-04-25T16:16:47.671Z,45.90
2024-04-25T16:19:16.069Z,46.08
2024-04-25T16:21:45.540Z,45.72
2024-04-25T16:24:13.916Z,45.39
2024-04-25T16:26:42.878Z,45.93
2024-04-25T16:29:11.286Z,46.10
2024-04-25T16:31:40.119Z,45.31
2024-04-25T16:34:08.659Z,45.20
2024-04-25T16:36:37.639Z,45.34
2024-04-25T16:39:06.043Z,45.52
2024-04-25T16:41:34.945Z,45.51
2024-04-25T16:44:03.281Z,45.18
2024-04-25T16:46:33.448Z,45.81
2024-04-25T16:49:01.826Z,45.73
2024-04-25T16:51:31.034Z,45.45
2024-04-25T16:53:59.434Z,45.32
2024-04-25T16:56:34.099Z,45.14
2024-04-25T16:59:02.611Z,45.30
2024-04-25T17:01:31.368Z,45.49
2024-04-25T17:04:01.420Z,45.44
2024-04-25T17:06:30.311Z,43.85
2024-04-25T17:08:58.721Z,39.09
2024-04-25T17:11:30.569Z,39.37
2024-04-25T17:14:00.955Z,38.93
2024-04-25T17:16:29.906Z,40.43
2024-04-25T17:18:59.278Z,38.93
2024-04-25T17:21:28.270Z,38.68
2024-04-25T17:23:56.855Z,39.24
2024-04-25T17:26:25.972Z,39.11
2024-04-25T17:28:54.897Z,39.47
2024-04-25T17:31:24.226Z,39.36
2024-04-25T17:33:52.696Z,39.43
2024-04-25T17:36:21.678Z,39.32
2024-04-25T17:38:54.519Z,39.96
2024-04-25T17:41:23.941Z,41.11
2024-04-25T17:43:52.369Z,41.84
2024-04-25T17:46:21.229Z,42.63
2024-04-25T17:48:50.003Z,42.46
2024-04-25T17:51:21.696Z,42.38
2024-04-25T17:53:50.350Z,43.26
2024-04-25T17:56:19.171Z,43.45
2024-04-25T17:58:47.486Z,43.77
2024-04-25T18:01:16.337Z,43.85
2024-04-25T18:03:44.729Z,44.06
2024-04-25T18:06:13.534Z,44.50
2024-04-25T18:08:41.912Z,44.93
2024-04-25T18:11:11.358Z,44.58
2024-04-25T18:13:40.082Z,44.77
2024-04-25T18:16:08.947Z,45.49
2024-04-25T18:18:37.738Z,45.71
2024-04-25T18:21:06.650Z,45.41
2024-04-25T18:23:35.037Z,45.42
2024-04-25T18:26:03.935Z,45.97
2024-04-25T18:28:32.558Z,46.08
2024-04-25T18:31:01.400Z,46.11
2024-04-25T18:33:30.064Z,46.54
2024-04-25T18:35:59.032Z,46.64
2024-04-25T18:38:27.461Z,46.80
2024-04-25T18:40:56.256Z,46.77
2024-04-25T18:43:24.626Z,47.05
2024-04-25T18:45:53.515Z,46.70
2024-04-25T18:48:22.045Z,47.01
2024-04-25T18:50:51.048Z,47.18
2024-04-25T18:53:21.631Z,47.01
2024-04-25T18:55:52.645Z,46.83
2024-04-25T18:58:27.152Z,47.38
2024-04-25T19:00:58.485Z,47.70
2024-04-25T19:03:27.978Z,47.53
2024-04-25T19:05:56.829Z,47.65
2024-04-25T19:08:25.200Z,47.65
2024-04-25T19:10:54.166Z,47.88
2024-04-25T19:13:23.468Z,47.75
2024-04-25T19:15:52.321Z,47.56
2024-04-25T19:18:24.695Z,47.67
2024-04-25T19:20:57.359Z,47.95
2024-04-25T19:23:25.669Z,47.56
2024-04-25T19:25:54.617Z,47.60
2024-04-25T19:28:22.979Z,47.87
2024-04-25T19:30:51.793Z,47.99
2024-04-25T19:33:20.027Z,47.70
2024-04-25T19:35:48.825Z,47.63
2024-04-25T19:38:17.588Z,47.63
2024-04-25T19:40:46.304Z,47.29
2024-04-25T19:43:14.450Z,47.51
2024-04-25T19:45:43.092Z,47.53
2024-04-25T19:48:11.247Z,47.51
2024-04-25T19:50:40.020Z,48.03
2024-04-25T19:53:08.919Z,47.78
2024-04-25T19:55:37.668Z,47.65
2024-04-25T19:58:06.044Z,47.91
2024-04-25T20:00:34.720Z,48.07
2024-04-25T20:03:03.062Z,47.72
2024-04-25T20:05:32.112Z,47.63
2024-04-25T20:08:00.387Z,47.48
2024-04-25T20:10:29.122Z,47.91
2024-04-25T20:12:57.237Z,47.56
2024-04-25T20:15:25.762Z,48.09
2024-04-25T20:18:12.487Z,47.86
2024-04-25T20:20:59.800Z,47.83
2024-04-25T20:23:28.153Z,47.91
2024-04-25T20:25:56.823Z,47.82
2024-04-25T20:28:24.928Z,48.01
2024-04-25T20:30:53.482Z,47.26
2024-04-25T20:33:21.890Z,47.26
2024-04-25T20:35:50.644Z,48.23
2024-04-25T20:38:18.938Z,47.53
2024-04-25T20:40:47.583Z,47.70
2024-04-25T20:43:16.860Z,47.64
2024-04-25T20:45:45.400Z,47.40
2024-04-25T20:48:14.008Z,47.86
2024-04-25T20:50:43.485Z,47.57
2024-04-25T20:53:14.534Z,47.97
2024-04-25T20:55:43.081Z,47.71
2024-04-25T20:58:11.885Z,47.84
2024-04-25T21:00:40.880Z,47.84
2024-04-25T21:03:09.127Z,47.69
2024-04-25T21:05:37.786Z,47.61
2024-04-25T21:08:06.347Z,47.87
2024-04-25T21:10:34.889Z,47.97
2024-04-25T21:13:03.026Z,47.67
2024-04-25T21:15:31.755Z,47.86
2024-04-25T21:18:00.125Z,47.93
2024-04-25T21:20:31.137Z,48.16
2024-04-25T21:22:59.273Z,47.94
2024-04-25T21:25:27.884Z,48.10
2024-04-25T21:27:56.162Z,47.85
2024-04-25T21:30:24.463Z,47.70
2024-04-25T21:32:53.336Z,48.44
2024-04-25T21:35:21.594Z,48.21
2024-04-25T21:37:50.183Z,48.02
2024-04-25T21:40:18.637Z,48.63
2024-04-25T21:42:47.242Z,48.28
2024-04-25T21:45:15.503Z,48.41
2024-04-25T21:47:44.166Z,48.46
2024-04-25T21:50:12.454Z,48.75
2024-04-25T21:52:40.943Z,48.53
2024-04-25T21:55:08.954Z,48.09
2024-04-25T21:57:37.380Z,48.41
2024-04-25T22:00:05.598Z,48.31
2024-04-25T22:02:34.104Z,47.88
2024-04-25T22:05:02.256Z,48.28
2024-04-25T22:07:30.680Z,47.96
2024-04-25T22:09:58.612Z,48.26
2024-04-25T22:12:27.529Z,48.31
2024-04-25T22:14:55.735Z,48.31
2024-04-25T22:17:24.370Z,48.26
2024-04-25T22:19:52.447Z,48.49
2024-04-25T22:22:21.011Z,48.65
2024-04-25T22:24:49.070Z,48.66
2024-04-25T22:27:17.597Z,48.27
2024-04-25T22:29:45.600Z,48.51
2024-04-25T22:32:14.142Z,48.19
2024-04-25T22:34:42.362Z,48.47
2024-04-25T22:37:10.857Z,48.65
2024-04-25T22:39:40.236Z,48.25
2024-04-25T22:42:10.037Z,48.47
2024-04-25T22:44:38.255Z,48.43
2024-04-25T22:47:06.899Z,48.40
2024-04-25T22:49:34.920Z,48.70
2024-04-25T22:52:03.463Z,49.01
2024-04-25T22:54:31.570Z,48.97
2024-04-25T22:57:00.043Z,49.06
2024-04-25T22:59:28.251Z,48.56
2024-04-25T23:01:56.831Z,48.75
2024-04-25T23:04:25.011Z,48.70
2024-04-25T23:06:53.440Z,48.64
2024-04-25T23:09:22.430Z,48.51
2024-04-25T23:11:51.018Z,48.36
2024-04-25T23:14:19.126Z,48.67
2024-04-25T23:16:47.523Z,49.12
2024-04-25T23:19:15.681Z,48.89
2024-04-25T23:21:44.141Z,49.38
2024-04-25T23:24:12.405Z,48.63
2024-04-25T23:26:40.959Z,49.22
2024-04-25T23:29:09.760Z,48.96
2024-04-25T23:31:38.374Z,49.00
2024-04-25T23:34:06.519Z,49.14
2024-04-25T23:36:38.143Z,49.09
2024-04-25T23:39:07.003Z,48.68
2024-04-25T23:41:35.525Z,49.03
2024-04-25T23:44:03.752Z,49.51
2024-04-25T23:46:32.415Z,48.71
2024-04-25T23:49:00.640Z,48.81
2024-04-25T23:51:30.250Z,49.04
2024-04-25T23:53:58.454Z,49.17
2024-04-25T23:56:27.025Z,49.13
2024-04-25T23:58:55.127Z,48.96
